| time (UTC) | temp F | wind direction | speed knots | gust knots | rain 1hr in | rain 24hr in | rain mn in | humidity % | barometer mb |
| 20260906225313 | 86 | 108 | 6.1 | 6.1 | 0.00 | 0.00 | 0.00 | 37 | 1018.6 |
| 20260906224313 | 87 | 87 | 5.2 | 5.2 | 0.00 | 0.00 | 0.00 | 35 | 1018.6 |
| 20260906223813 | 87 | 106 | 5.2 | 5.2 | 0.00 | 0.00 | 0.00 | 34 | 1018.6 |
| 20260906222813 | 87 | 75 | 5.2 | 5.2 | 0.00 | 0.00 | 0.00 | 34 | 1019.0 |
| 20260906222313 | 87 | 102 | 4.3 | 4.3 | 0.00 | 0.00 | 0.00 | 33 | 1019.0 |
| 20260906221313 | 86 | 85 | 5.2 | 5.2 | 0.00 | 0.00 | 0.00 | 34 | 1019.3 |
| 20260906220312 | 87 | 65 | 5.2 | 5.2 | 0.00 | 0.00 | 0.00 | 34 | 1019.0 |
| 20260906215812 | 87 | 67 | 5.2 | 5.2 | 0.00 | 0.00 | 0.00 | 33 | 1019.3 |
| 20260906215312 | 87 | 48 | 5.2 | 5.2 | 0.00 | 0.00 | 0.00 | 34 | 1019.3 |
| 20260906214812 | 86 | 38 | 5.2 | 5.2 | 0.00 | 0.00 | 0.00 | 34 | 1019.3 |
| 20260906213813 | 86 | 51 | 5.2 | 5.2 | 0.00 | 0.00 | 0.00 | 34 | 1019.6 |
| 20260906210812 | 85 | 86 | 4.3 | 4.3 | 0.00 | 0.00 | 0.00 | 35 | 1020.0 |
| 20260906205812 | 85 | 52 | 4.3 | 4.3 | 0.00 | 0.00 | 0.00 | 34 | 1020.0 |
| 20260906203812 | 84 | 59 | 3.5 | 3.5 | 0.00 | 0.00 | 0.00 | 36 | 1020.3 |
| 20260906203312 | 84 | 65 | 3.5 | 3.5 | 0.00 | 0.00 | 0.00 | 35 | 1020.3 |
| 20260906202812 | 84 | 69 | 3.5 | 3.5 | 0.00 | 0.00 | 0.00 | 34 | 1020.7 |
| 20260906201812 | 83 | 54 | 3.5 | 3.5 | 0.00 | 0.00 | 0.00 | 35 | 1020.7 |
| 20260906201312 | 83 | 29 | 3.5 | 3.5 | 0.00 | 0.00 | 0.00 | 36 | 1020.7 |
| 20260906200812 | 83 | 79 | 3.5 | 3.5 | 0.00 | 0.00 | 0.00 | 35 | 1020.7 |
| 20260906200312 | 83 | 61 | 3.5 | 3.5 | 0.00 | 0.00 | 0.00 | 36 | 1020.7 |
| 20260906195812 | 83 | 59 | 3.5 | 3.5 | 0.00 | 0.00 | 0.00 | 37 | 1020.7 |
| 20260906194812 | 82 | 112 | 4.3 | 4.3 | 0.00 | 0.00 | 0.00 | 39 | 1021.0 |
| 20260906194312 | 82 | 81 | 4.3 | 4.3 | 0.00 | 0.00 | 0.00 | 40 | 1021.0 |
| 20260906193312 | 81 | 64 | 4.3 | 4.3 | 0.00 | 0.00 | 0.00 | 41 | 1021.3 |
| 20260906192812 | 80 | 97 | 4.3 | 4.3 | 0.00 | 0.00 | 0.00 | 41 | 1021.3 |
| 20260906191814 | 80 | 57 | 4.3 | 4.3 | 0.00 | 0.00 | 0.00 | 41 | 1021.3 |
| 20260906191312 | 80 | 49 | 3.5 | 3.5 | 0.00 | 0.00 | 0.00 | 40 | 1021.3 |
| 20260906190812 | 80 | 95 | 3.5 | 3.5 | 0.00 | 0.00 | 0.00 | 43 | 1021.3 |
| 20260906185812 | 79 | 30 | 3.5 | 3.5 | 0.00 | 0.00 | 0.00 | 43 | 1021.7 |
| 20260906185312 | 80 | 42 | 3.5 | 3.5 | 0.00 | 0.00 | 0.00 | 42 | 1021.7 |
| 20260906184811 | 79 | 60 | 3.5 | 3.5 | 0.00 | 0.00 | 0.00 | 41 | 1022.0 |
| 20260906184311 | 79 | 137 | 3.5 | 3.5 | 0.00 | 0.00 | 0.00 | 42 | 1022.0 |
| 20260906183811 | 78 | 68 | 3.5 | 3.5 | 0.00 | 0.00 | 0.00 | 42 | 1022.0 |
| 20260906182811 | 78 | 56 | 3.5 | 3.5 | 0.00 | 0.00 | 0.00 | 44 | 1022.0 |
| 20260906182311 | 78 | 70 | 3.5 | 3.5 | 0.00 | 0.00 | 0.00 | 43 | 1022.4 |
| 20260906180811 | 77 | 89 | 2.6 | 2.6 | 0.00 | 0.00 | 0.00 | 44 | 1022.4 |
| 20260906180311 | 77 | 10 | 2.6 | 2.6 | 0.00 | 0.00 | 0.00 | 42 | 1022.4 |
| 20260906175311 | 77 | 66 | 2.6 | 2.6 | 0.00 | 0.00 | 0.00 | 42 | 1022.7 |
| 20260906174811 | 77 | 104 | 1.7 | 1.7 | 0.00 | 0.00 | 0.00 | 42 | 1022.7 |
| 20260906173811 | 77 | 359 | 1.7 | 1.7 | 0.00 | 0.00 | 0.00 | 42 | 1023.0 |
| 20260906173311 | 76 | 43 | 1.7 | 1.7 | 0.00 | 0.00 | 0.00 | 44 | 1023.0 |
| 20260906172811 | 77 | 33 | 1.7 | 1.7 | 0.00 | 0.00 | 0.00 | 43 | 1023.0 |
| 20260906172311 | 77 | 18 | 1.7 | 1.7 | 0.00 | 0.00 | 0.00 | 42 | 1023.4 |
| 20260906171811 | 76 | 260 | 1.7 | 1.7 | 0.00 | 0.00 | 0.00 | 44 | 1023.4 |
| 20260906165811 | 74 | 148 | 1.7 | 1.7 | 0.00 | 0.00 | 0.00 | 47 | 1023.7 |
| 20260906165311 | 74 | 82 | 1.7 | 1.7 | 0.00 | 0.00 | 0.00 | 46 | 1023.7 |
| 20260906164811 | 73 | 168 | 1.7 | 1.7 | 0.00 | 0.00 | 0.00 | 50 | 1023.7 |
| 20260906163811 | 72 | 148 | 1.7 | 1.7 | 0.00 | 0.00 | 0.00 | 50 | 1023.7 |
| 20260906163311 | 72 | 192 | 1.7 | 1.7 | 0.00 | 0.00 | 0.00 | 52 | 1023.7 |
| 20260906161811 | 72 | 158 | 1.7 | 1.7 | 0.00 | 0.00 | 0.00 | 49 | 1023.7 |
| 20260906161311 | 72 | 133 | 1.7 | 1.7 | 0.00 | 0.00 | 0.00 | 49 | 1023.7 |
| 20260906160811 | 72 | 143 | 1.7 | 1.7 | 0.00 | 0.00 | 0.00 | 50 | 1023.7 |
| 20260906155311 | 71 | 130 | 1.7 | 1.7 | 0.00 | 0.00 | 0.00 | 53 | 1023.7 |
| 20260906154811 | 70 | 104 | 1.7 | 1.7 | 0.00 | 0.00 | 0.00 | 51 | 1023.7 |
| 20260906153811 | 70 | 123 | 1.7 | 1.7 | 0.00 | 0.00 | 0.00 | 51 | 1023.4 |
| 20260906153310 | 69 | 162 | 1.7 | 1.7 | 0.00 | 0.00 | 0.00 | 53 | 1023.4 |
| 20260906152811 | 70 | 174 | 1.7 | 1.7 | 0.00 | 0.00 | 0.00 | 52 | 1023.4 |
| 20260906152311 | 70 | 157 | 1.7 | 1.7 | 0.00 | 0.00 | 0.00 | 54 | 1023.7 |
| 20260906151311 | 71 | 134 | 0.9 | 0.9 | 0.00 | 0.00 | 0.00 | 51 | 1023.7 |
| 20260906150811 | 70 | 167 | 0.9 | 0.9 | 0.00 | 0.00 | 0.00 | 51 | 1023.7 |
| 20260906145311 | 69 | 184 | 0.9 | 0.9 | 0.00 | 0.00 | 0.00 | 52 | 1023.7 |
| 20260906144311 | 68 | 159 | 0.9 | 0.9 | 0.00 | 0.00 | 0.00 | 56 | 1023.7 |
| 20260906142810 | 67 | 154 | 0.9 | 0.9 | 0.00 | 0.00 | 0.00 | 55 | 1023.7 |
| 20260906142311 | 66 | 141 | 0.9 | 0.9 | 0.00 | 0.00 | 0.00 | 58 | 1023.7 |
| 20260906141310 | 66 | 203 | 1.7 | 1.7 | 0.00 | 0.00 | 0.00 | 59 | 1023.7 |
| 20260906140810 | 67 | 232 | 0.9 | 0.9 | 0.00 | 0.00 | 0.00 | 55 | 1023.7 |
| 20260906135310 | 65 | 177 | 1.7 | 1.7 | 0.00 | 0.00 | 0.00 | 58 | 1023.7 |
| 20260906134310 | 64 | 176 | 1.7 | 1.7 | 0.00 | 0.00 | 0.00 | 60 | 1023.7 |
| 20260906133811 | 64 | 161 | 1.7 | 1.7 | 0.00 | 0.00 | 0.00 | 61 | 1023.7 |
| 20260906132310 | 62 | 69 | 0.9 | 0.9 | 0.00 | 0.00 | 0.00 | 64 | 1023.4 |
| 20260906131810 | 62 | 15 | 0.9 | 0.9 | 0.00 | 0.00 | 0.00 | 66 | 1023.4 |
| 20260906131310 | 62 | 337 | 0.9 | 0.9 | 0.00 | 0.00 | 0.00 | 65 | 1023.4 |
| 20260906130810 | 62 | 286 | 0.9 | 0.9 | 0.00 | 0.00 | 0.00 | 64 | 1023.4 |
| 20260906130310 | 62 | 286 | 0.9 | 0.9 | 0.00 | 0.00 | 0.00 | 65 | 1023.0 |
| 20260906125810 | 61 | 300 | 0.9 | 0.9 | 0.00 | 0.00 | 0.00 | 66 | 1023.0 |
| 20260906124310 | 62 | 292 | 0.9 | 0.9 | 0.00 | 0.00 | 0.00 | 64 | 1023.0 |
| 20260906123810 | 61 | 288 | 0.9 | 0.9 | 0.00 | 0.00 | 0.00 | 64 | 1023.0 |
| 20260906122810 | 61 | 56 | 0.0 | 0.0 | 0.00 | 0.00 | 0.00 | 64 | 1023.0 |
| 20260906122310 | 61 | 321 | 0.9 | 0.9 | 0.00 | 0.00 | 0.00 | 63 | 1023.0 |
| 20260906121310 | 62 | 235 | 0.9 | 0.9 | 0.00 | 0.00 | 0.00 | 63 | 1023.0 |
| 20260906115309 | 62 | 214 | 0.9 | 0.9 | 0.00 | 0.00 | 0.00 | 61 | 1023.4 |
| 20260906114309 | 63 | 322 | 0.9 | 0.9 | 0.00 | 0.00 | 0.00 | 60 | 1023.4 |
| 20260906113810 | 63 | 13 | 0.9 | 0.9 | 0.00 | 0.00 | 0.00 | 60 | 1023.4 |
| 20260906112310 | 64 | 21 | 0.9 | 0.9 | 0.00 | 0.00 | 0.00 | 58 | 1023.0 |
| 20260906111809 | 63 | 61 | 0.9 | 0.9 | 0.00 | 0.00 | 0.00 | 59 | 1023.0 |
| 20260906110810 | 64 | 336 | 0.9 | 0.9 | 0.00 | 0.00 | 0.00 | 60 | 1022.7 |
| 20260906110309 | 64 | 293 | 0.9 | 0.9 | 0.00 | 0.00 | 0.00 | 57 | 1022.7 |
| 20260906105310 | 64 | 254 | 0.9 | 0.9 | 0.00 | 0.00 | 0.00 | 57 | 1022.7 |
| 20260906104310 | 65 | 344 | 0.9 | 0.9 | 0.00 | 0.00 | 0.00 | 57 | 1022.7 |
| 20260906103810 | 65 | 337 | 0.9 | 0.9 | 0.00 | 0.00 | 0.00 | 58 | 1022.7 |
| 20260906103310 | 66 | 312 | 1.7 | 1.7 | 0.00 | 0.00 | 0.00 | 56 | 1022.7 |
| 20260906102810 | 66 | 298 | 1.7 | 1.7 | 0.00 | 0.00 | 0.00 | 54 | 1022.7 |
| 20260906101809 | 66 | 324 | 1.7 | 1.7 | 0.00 | 0.00 | 0.00 | 53 | 1022.7 |
| 20260906100810 | 65 | 343 | 1.7 | 1.7 | 0.00 | 0.00 | 0.00 | 54 | 1022.7 |
| 20260906100310 | 65 | 340 | 0.9 | 0.9 | 0.00 | 0.00 | 0.00 | 56 | 1022.4 |
| 20260906095310 | 66 | 276 | 0.9 | 0.9 | 0.00 | 0.00 | 0.00 | 57 | 1022.7 |
| 20260906094810 | 66 | 345 | 0.9 | 0.9 | 0.00 | 0.00 | 0.00 | 56 | 1022.7 |
| 20260906093809 | 66 | 17 | 0.9 | 0.9 | 0.00 | 0.00 | 0.00 | 55 | 1022.7 |
| 20260906093310 | 66 | 333 | 0.9 | 0.9 | 0.00 | 0.00 | 0.00 | 57 | 1022.7 |
| 20260906092809 | 66 | 312 | 0.9 | 0.9 | 0.00 | 0.00 | 0.00 | 55 | 1022.7 |
| 20260906092310 | 66 | 279 | 0.9 | 0.9 | 0.00 | 0.00 | 0.00 | 55 | 1022.7 |
| 20260906091309 | 66 | 296 | 0.9 | 0.9 | 0.00 | 0.00 | 0.00 | 57 | 1022.4 |
| 20260906090309 | 66 | 232 | 0.9 | 0.9 | 0.00 | 0.00 | 0.00 | 57 | 1022.4 |
| 20260906085309 | 67 | 257 | 1.7 | 1.7 | 0.00 | 0.00 | 0.00 | 55 | 1022.4 |
| 20260906084809 | 67 | 222 | 1.7 | 1.7 | 0.00 | 0.00 | 0.00 | 54 | 1022.4 |
| 20260906084310 | 67 | 208 | 0.9 | 0.9 | 0.00 | 0.00 | 0.00 | 55 | 1022.4 |
| 20260906083810 | 68 | 63 | 0.9 | 0.9 | 0.00 | 0.00 | 0.00 | 54 | 1022.4 |
| 20260906083310 | 68 | 74 | 0.9 | 0.9 | 0.00 | 0.00 | 0.00 | 54 | 1022.4 |
| 20260906082809 | 69 | 75 | 1.7 | 1.7 | 0.00 | 0.00 | 0.00 | 52 | 1022.4 |
| 20260906082310 | 69 | 65 | 0.9 | 0.9 | 0.00 | 0.00 | 0.00 | 50 | 1022.4 |
| 20260906081309 | 70 | 93 | 0.9 | 0.9 | 0.00 | 0.00 | 0.00 | 47 | 1022.4 |
| 20260906080810 | 70 | 144 | 0.9 | 0.9 | 0.00 | 0.00 | 0.00 | 48 | 1022.4 |
| 20260906080309 | 70 | 104 | 1.7 | 1.7 | 0.00 | 0.00 | 0.00 | 48 | 1022.4 |
| 20260906075809 | 71 | 265 | 2.6 | 2.6 | 0.00 | 0.00 | 0.00 | 47 | 1022.4 |
| 20260906074810 | 71 | 333 | 2.6 | 2.6 | 0.00 | 0.00 | 0.00 | 44 | 1022.4 |
| 20260906073810 | 72 | 295 | 2.6 | 2.6 | 0.00 | 0.00 | 0.00 | 46 | 1022.4 |
| 20260906073309 | 72 | 276 | 2.6 | 2.6 | 0.00 | 0.00 | 0.00 | 46 | 1022.0 |
| 20260906072309 | 72 | 277 | 2.6 | 2.6 | 0.00 | 0.00 | 0.00 | 46 | 1022.0 |
| 20260906071809 | 71 | 282 | 1.7 | 1.7 | 0.00 | 0.00 | 0.00 | 47 | 1022.4 |
| 20260906071310 | 71 | 250 | 1.7 | 1.7 | 0.00 | 0.00 | 0.00 | 46 | 1022.4 |
| 20260906070309 | 71 | 256 | 1.7 | 1.7 | 0.00 | 0.00 | 0.00 | 46 | 1022.4 |
| 20260906065809 | 71 | 253 | 1.7 | 1.7 | 0.00 | 0.00 | 0.00 | 46 | 1022.4 |
| 20260906065310 | 71 | 266 | 1.7 | 1.7 | 0.00 | 0.00 | 0.00 | 46 | 1022.4 |
| 20260906064309 | 71 | 319 | 0.9 | 0.9 | 0.00 | 0.00 | 0.00 | 47 | 1022.4 |
| 20260906063810 | 71 | 297 | 0.9 | 0.9 | 0.00 | 0.00 | 0.00 | 47 | 1022.4 |
| 20260906063310 | 71 | 19 | 1.7 | 1.7 | 0.00 | 0.00 | 0.00 | 47 | 1022.4 |
| 20260906062809 | 71 | 198 | 1.7 | 1.7 | 0.00 | 0.00 | 0.00 | 48 | 1022.4 |
| 20260906062310 | 71 | 210 | 1.7 | 1.7 | 0.00 | 0.00 | 0.00 | 48 | 1022.7 |
| 20260906061309 | 71 | 235 | 2.6 | 2.6 | 0.00 | 0.00 | 0.00 | 48 | 1022.7 |
| 20260906060309 | 71 | 260 | 2.6 | 2.6 | 0.00 | 0.00 | 0.00 | 48 | 1022.7 |
| 20260906055309 | 72 | 320 | 2.6 | 2.6 | 0.00 | 0.00 | 0.00 | 46 | 1022.7 |
| 20260906054309 | 72 | 275 | 3.5 | 3.5 | 0.00 | 0.00 | 0.00 | 43 | 1022.7 |
| 20260906053309 | 72 | 254 | 3.5 | 3.5 | 0.00 | 0.00 | 0.00 | 44 | 1022.7 |
| 20260906052809 | 72 | 258 | 3.5 | 3.5 | 0.00 | 0.00 | 0.00 | 44 | 1022.7 |
| 20260906051809 | 72 | 281 | 3.5 | 3.5 | 0.00 | 0.00 | 0.00 | 46 | 1022.7 |
| 20260906051309 | 72 | 280 | 3.5 | 3.5 | 0.00 | 0.00 | 0.00 | 47 | 1022.7 |
| 20260906050309 | 75 | 288 | 2.6 | 2.6 | 0.00 | 0.00 | 0.00 | 46 | 1023.0 |
| 20260906045809 | 76 | 264 | 2.6 | 2.6 | 0.00 | 0.00 | 0.00 | 40 | 1023.4 |
| 20260906045309 | 77 | 240 | 2.6 | 2.6 | 0.00 | 0.00 | 0.00 | 38 | 1023.4 |
| 20260906044309 | 78 | 268 | 2.6 | 2.6 | 0.00 | 0.00 | 0.00 | 33 | 1023.0 |
| 20260906042309 | 75 | 322 | 1.7 | 1.7 | 0.00 | 0.00 | 0.00 | 36 | 1023.0 |
| 20260906040809 | 76 | 151 | 1.7 | 1.7 | 0.00 | 0.00 | 0.00 | 36 | 1022.7 |
| 20260906035809 | 76 | 196 | 0.9 | 0.9 | 0.00 | 0.00 | 0.00 | 35 | 1022.0 |
| 20260906035309 | 77 | 272 | 1.7 | 1.7 | 0.00 | 0.00 | 0.00 | 34 | 1022.0 |
| 20260906034809 | 77 | 290 | 1.7 | 1.7 | 0.00 | 0.00 | 0.00 | 34 | 1021.7 |
| 20260906034309 | 77 | 301 | 1.7 | 1.7 | 0.00 | 0.00 | 0.00 | 33 | 1021.7 |
| 20260906033309 | 78 | 338 | 1.7 | 1.7 | 0.00 | 0.00 | 0.00 | 32 | 1021.7 |
| 20260906032309 | 78 | 314 | 1.7 | 1.7 | 0.00 | 0.00 | 0.00 | 31 | 1021.7 |
| 20260906031809 | 77 | 315 | 1.7 | 1.7 | 0.00 | 0.00 | 0.00 | 32 | 1021.7 |
| 20260906030309 | 77 | 291 | 1.7 | 1.7 | 0.00 | 0.00 | 0.00 | 33 | 1021.3 |
| 20260906024808 | 77 | 283 | 1.7 | 1.7 | 0.00 | 0.00 | 0.00 | 35 | 1021.0 |
| 20260906024309 | 77 | 290 | 0.9 | 0.9 | 0.00 | 0.00 | 0.00 | 34 | 1021.0 |
| 20260906023308 | 78 | 236 | 1.7 | 1.7 | 0.00 | 0.00 | 0.00 | 32 | 1021.3 |
| 20260906022808 | 78 | 241 | 1.7 | 1.7 | 0.00 | 0.00 | 0.00 | 32 | 1021.3 |
| 20260906021809 | 80 | 252 | 1.7 | 1.7 | 0.00 | 0.00 | 0.00 | 30 | 1021.0 |
| 20260906015808 | 81 | 332 | 1.7 | 1.7 | 0.00 | 0.00 | 0.00 | 29 | 1021.0 |
| 20260906015309 | 81 | 346 | 1.7 | 1.7 | 0.00 | 0.00 | 0.00 | 29 | 1020.7 |
| 20260906014809 | 81 | 333 | 1.7 | 1.7 | 0.00 | 0.00 | 0.00 | 29 | 1020.7 |
| 20260906014308 | 82 | 338 | 1.7 | 1.7 | 0.00 | 0.00 | 0.00 | 29 | 1020.7 |
| 20260906013808 | 82 | 336 | 0.9 | 0.9 | 0.00 | 0.00 | 0.00 | 29 | 1020.7 |
| 20260906013308 | 82 | 3 | 0.9 | 0.9 | 0.00 | 0.00 | 0.00 | 29 | 1020.7 |
| 20260906012308 | 83 | 343 | 0.9 | 0.9 | 0.00 | 0.00 | 0.00 | 27 | 1020.7 |
| 20260906011809 | 84 | 358 | 1.7 | 1.7 | 0.00 | 0.00 | 0.00 | 27 | 1020.7 |
| 20260906011308 | 84 | 12 | 1.7 | 1.7 | 0.00 | 0.00 | 0.00 | 26 | 1020.7 |
| 20260906010308 | 84 | 34 | 1.7 | 1.7 | 0.00 | 0.00 | 0.00 | 26 | 1020.7 |
| 20260906005808 | 85 | 28 | 1.7 | 1.7 | 0.00 | 0.00 | 0.00 | 26 | 1020.7 |
| 20260906005308 | 85 | 13 | 1.7 | 1.7 | 0.00 | 0.00 | 0.00 | 25 | 1020.7 |
| 20260906004308 | 86 | 18 | 1.7 | 1.7 | 0.00 | 0.00 | 0.00 | 24 | 1020.7 |
| 20260906003808 | 86 | 21 | 2.6 | 2.6 | 0.00 | 0.00 | 0.00 | 24 | 1020.7 |
| 20260906003308 | 86 | 25 | 2.6 | 2.6 | 0.00 | 0.00 | 0.00 | 24 | 1020.7 |
| 20260906002808 | 87 | 6 | 2.6 | 2.6 | 0.00 | 0.00 | 0.00 | 23 | 1020.7 |
| 20260906001808 | 87 | 12 | 2.6 | 2.6 | 0.00 | 0.00 | 0.00 | 23 | 1020.7 |
| 20260906001308 | 87 | 29 | 2.6 | 2.6 | 0.00 | 0.00 | 0.00 | 24 | 1020.3 |
| 20260906000808 | 88 | 7 | 2.6 | 2.6 | 0.00 | 0.00 | 0.00 | 23 | 1020.3 |
| 20260906000308 | 88 | 350 | 1.7 | 1.7 | 0.00 | 0.00 | 0.00 | 23 | 1020.3 |
| 20260905235308 | 88 | 27 | 1.7 | 1.7 | 0.00 | 0.00 | 0.00 | 23 | 1020.3 |
| 20260905234808 | 89 | 12 | 1.7 | 1.7 | 0.00 | 0.00 | 0.00 | 23 | 1020.3 |
| 20260905234308 | 89 | 309 | 1.7 | 1.7 | 0.00 | 0.00 | 0.00 | 23 | 1020.3 |
| 20260905233808 | 88 | 325 | 1.7 | 1.7 | 0.00 | 0.00 | 0.00 | 23 | 1020.3 |
| 20260905232308 | 88 | 68 | 2.6 | 2.6 | 0.00 | 0.00 | 0.00 | 24 | 1020.3 |
| 20260905231808 | 88 | 125 | 1.7 | 1.7 | 0.00 | 0.00 | 0.00 | 24 | 1020.3 |
| 20260905231308 | 88 | 66 | 2.6 | 2.6 | 0.00 | 0.00 | 0.00 | 23 | 1020.3 |
| 20260905230808 | 87 | 138 | 2.6 | 2.6 | 0.00 | 0.00 | 0.00 | 24 | 1020.3 |
| 20260905230308 | 87 | 27 | 2.6 | 2.6 | 0.00 | 0.00 | 0.00 | 24 | 1020.3 |
| 20260905225808 | 87 | 45 | 2.6 | 2.6 | 0.00 | 0.00 | 0.00 | 24 | 1020.3 |